sensor_id;sensor_type;location;lat;lon;timestamp;temperature;humidity
68098;DHT22;54886;47.036;15.466;2023-11-22T00:01:07;4.57;82.88
68098;DHT22;54886;47.036;15.466;2023-11-22T00:03:32;4.54;82.75
68098;DHT22;54886;47.036;15.466;2023-11-22T00:05:58;4.49;82.55
68098;DHT22;54886;47.036;15.466;2023-11-22T00:08:23;4.51;82.37
68098;DHT22;54886;47.036;15.466;2023-11-22T00:10:49;4.49;82.34
68098;DHT22;54886;47.036;15.466;2023-11-22T00:13:14;4.42;82.35
68098;DHT22;54886;47.036;15.466;2023-11-22T00:15:39;4.36;82.28
68098;DHT22;54886;47.036;15.466;2023-11-22T00:18:05;4.33;82.17
68098;DHT22;54886;47.036;15.466;2023-11-22T00:20:30;4.33;81.97
68098;DHT22;54886;47.036;15.466;2023-11-22T00:22:56;4.30;81.83
68098;DHT22;54886;47.036;15.466;2023-11-22T00:25:22;4.24;81.93
68098;DHT22;54886;47.036;15.466;2023-11-22T00:27:47;4.27;81.72
68098;DHT22;54886;47.036;15.466;2023-11-22T00:30:13;4.18;81.76
68098;DHT22;54886;47.036;15.466;2023-11-22T00:32:39;4.16;81.72
68098;DHT22;54886;47.036;15.466;2023-11-22T00:35:06;4.10;81.83
68098;DHT22;54886;47.036;15.466;2023-11-22T00:37:33;4.06;81.65
68098;DHT22;54886;47.036;15.466;2023-11-22T00:40:00;4.06;81.39
68098;DHT22;54886;47.036;15.466;2023-11-22T00:42:26;3.97;81.47
68098;DHT22;54886;47.036;15.466;2023-11-22T00:44:52;4.02;81.55
68098;DHT22;54886;47.036;15.466;2023-11-22T00:47:18;3.99;81.50
68098;DHT22;54886;47.036;15.466;2023-11-22T00:49:44;3.93;81.73
68098;DHT22;54886;47.036;15.466;2023-11-22T00:52:09;3.89;81.46
68098;DHT22;54886;47.036;15.466;2023-11-22T00:54:34;3.99;81.38
68098;DHT22;54886;47.036;15.466;2023-11-22T00:57:00;3.92;81.56
68098;DHT22;54886;47.036;15.466;2023-11-22T00:59:25;3.81;81.53
68098;DHT22;54886;47.036;15.466;2023-11-22T01:01:51;3.76;82.04
68098;DHT22;54886;47.036;15.466;2023-11-22T01:04:17;3.79;81.89
68098;DHT22;54886;47.036;15.466;2023-11-22T01:06:42;3.75;81.66
68098;DHT22;54886;47.036;15.466;2023-11-22T01:09:08;3.74;81.69
68098;DHT22;54886;47.036;15.466;2023-11-22T01:11:34;3.65;81.79
68098;DHT22;54886;47.036;15.466;2023-11-22T01:14:00;3.61;81.50
68098;DHT22;54886;47.036;15.466;2023-11-22T01:16:25;3.61;81.39
68098;DHT22;54886;47.036;15.466;2023-11-22T01:18:50;3.59;81.62
68098;DHT22;54886;47.036;15.466;2023-11-22T01:21:18;3.54;81.52
68098;DHT22;54886;47.036;15.466;2023-11-22T01:23:43;3.51;81.58
68098;DHT22;54886;47.036;15.466;2023-11-22T01:26:10;3.48;81.52
68098;DHT22;54886;47.036;15.466;2023-11-22T01:28:35;3.39;81.66
68098;DHT22;54886;47.036;15.466;2023-11-22T01:31:01;3.38;81.82
68098;DHT22;54886;47.036;15.466;2023-11-22T01:33:27;3.39;81.42
68098;DHT22;54886;47.036;15.466;2023-11-22T01:35:53;3.31;81.67
68098;DHT22;54886;47.036;15.466;2023-11-22T01:38:18;3.28;81.75
68098;DHT22;54886;47.036;15.466;2023-11-22T01:40:44;3.26;81.56
68098;DHT22;54886;47.036;15.466;2023-11-22T01:43:14;3.26;81.59
68098;DHT22;54886;47.036;15.466;2023-11-22T01:45:40;3.23;81.48
68098;DHT22;54886;47.036;15.466;2023-11-22T01:48:06;3.21;81.96
68098;DHT22;54886;47.036;15.466;2023-11-22T01:50:32;3.07;83.06
68098;DHT22;54886;47.036;15.466;2023-11-22T01:52:58;3.09;83.17
68098;DHT22;54886;47.036;15.466;2023-11-22T01:55:24;3.11;83.38
68098;DHT22;54886;47.036;15.466;2023-11-22T01:57:49;3.16;83.11
68098;DHT22;54886;47.036;15.466;2023-11-22T02:00:15;3.16;82.94
68098;DHT22;54886;47.036;15.466;2023-11-22T02:02:41;3.16;83.38
68098;DHT22;54886;47.036;15.466;2023-11-22T02:05:08;3.14;83.48
68098;DHT22;54886;47.036;15.466;2023-11-22T02:07:33;3.16;83.55
68098;DHT22;54886;47.036;15.466;2023-11-22T02:09:59;3.24;83.12
68098;DHT22;54886;47.036;15.466;2023-11-22T02:12:24;3.26;83.14
68098;DHT22;54886;47.036;15.466;2023-11-22T02:14:49;3.13;83.50
68098;DHT22;54886;47.036;15.466;2023-11-22T02:17:15;3.20;83.00
68098;DHT22;54886;47.036;15.466;2023-11-22T02:19:42;3.14;83.23
68098;DHT22;54886;47.036;15.466;2023-11-22T02:22:08;3.11;83.30
68098;DHT22;54886;47.036;15.466;2023-11-22T02:24:33;3.14;83.28
68098;DHT22;54886;47.036;15.466;2023-11-22T02:27:00;3.17;83.27
68098;DHT22;54886;47.036;15.466;2023-11-22T02:29:25;3.09;83.32
68098;DHT22;54886;47.036;15.466;2023-11-22T02:31:50;3.09;82.98
68098;DHT22;54886;47.036;15.466;2023-11-22T02:34:16;3.04;83.14
68098;DHT22;54886;47.036;15.466;2023-11-22T02:36:44;3.04;82.77
68098;DHT22;54886;47.036;15.466;2023-11-22T02:39:09;3.00;83.05
68098;DHT22;54886;47.036;15.466;2023-11-22T02:41:35;3.00;82.91
68098;DHT22;54886;47.036;15.466;2023-11-22T02:44:01;2.97;83.08
68098;DHT22;54886;47.036;15.466;2023-11-22T02:46:26;2.95;83.07
68098;DHT22;54886;47.036;15.466;2023-11-22T02:48:52;2.95;82.83
68098;DHT22;54886;47.036;15.466;2023-11-22T02:51:19;2.91;83.21
68098;DHT22;54886;47.036;15.466;2023-11-22T02:53:46;2.86;83.54
68098;DHT22;54886;47.036;15.466;2023-11-22T02:56:14;2.86;83.46
68098;DHT22;54886;47.036;15.466;2023-11-22T02:58:39;2.81;83.71
68098;DHT22;54886;47.036;15.466;2023-11-22T03:01:04;2.76;83.83
68098;DHT22;54886;47.036;15.466;2023-11-22T03:03:30;2.85;83.51
68098;DHT22;54886;47.036;15.466;2023-11-22T03:05:55;2.72;84.06
68098;DHT22;54886;47.036;15.466;2023-11-22T03:08:20;2.81;83.19
68098;DHT22;54886;47.036;15.466;2023-11-22T03:10:46;2.81;83.53
68098;DHT22;54886;47.036;15.466;2023-11-22T03:13:11;2.76;83.78
68098;DHT22;54886;47.036;15.466;2023-11-22T03:15:38;2.74;83.37
68098;DHT22;54886;47.036;15.466;2023-11-22T03:18:04;2.74;83.46
68098;DHT22;54886;47.036;15.466;2023-11-22T03:20:31;2.66;83.46
68098;DHT22;54886;47.036;15.466;2023-11-22T03:22:58;2.72;83.17
68098;DHT22;54886;47.036;15.466;2023-11-22T03:25:23;2.74;82.97
68098;DHT22;54886;47.036;15.466;2023-11-22T03:27:48;2.72;82.68
68098;DHT22;54886;47.036;15.466;2023-11-22T03:30:14;2.62;82.99
68098;DHT22;54886;47.036;15.466;2023-11-22T03:32:43;2.55;83.34
68098;DHT22;54886;47.036;15.466;2023-11-22T03:35:09;2.51;83.31
68098;DHT22;54886;47.036;15.466;2023-11-22T03:37:35;2.49;83.20
68098;DHT22;54886;47.036;15.466;2023-11-22T03:40:00;2.49;82.89
68098;DHT22;54886;47.036;15.466;2023-11-22T03:42:26;2.58;82.68
68098;DHT22;54886;47.036;15.466;2023-11-22T03:44:54;2.58;82.68
68098;DHT22;54886;47.036;15.466;2023-11-22T03:47:20;2.51;82.80
68098;DHT22;54886;47.036;15.466;2023-11-22T03:49:45;2.47;82.57
68098;DHT22;54886;47.036;15.466;2023-11-22T03:52:11;2.41;82.52
68098;DHT22;54886;47.036;15.466;2023-11-22T03:54:37;2.41;82.36
68098;DHT22;54886;47.036;15.466;2023-11-22T03:57:03;2.36;82.14
68098;DHT22;54886;47.036;15.466;2023-11-22T03:59:29;2.36;82.40
68098;DHT22;54886;47.036;15.466;2023-11-22T04:01:55;2.37;82.36
68098;DHT22;54886;47.036;15.466;2023-11-22T04:04:20;2.34;82.32
68098;DHT22;54886;47.036;15.466;2023-11-22T04:06:46;2.28;82.47
68098;DHT22;54886;47.036;15.466;2023-11-22T04:09:11;2.23;82.54
68098;DHT22;54886;47.036;15.466;2023-11-22T04:11:38;2.23;82.46
68098;DHT22;54886;47.036;15.466;2023-11-22T04:14:03;2.19;82.33
68098;DHT22;54886;47.036;15.466;2023-11-22T04:16:29;2.21;82.36
68098;DHT22;54886;47.036;15.466;2023-11-22T04:18:54;2.24;82.19
68098;DHT22;54886;47.036;15.466;2023-11-22T04:21:19;2.27;82.20
68098;DHT22;54886;47.036;15.466;2023-11-22T04:23:45;2.26;81.98
68098;DHT22;54886;47.036;15.466;2023-11-22T04:26:10;2.27;81.63
68098;DHT22;54886;47.036;15.466;2023-11-22T04:28:36;2.27;82.00
68098;DHT22;54886;47.036;15.466;2023-11-22T04:31:01;2.24;82.07
68098;DHT22;54886;47.036;15.466;2023-11-22T04:33:27;2.26;81.72
68098;DHT22;54886;47.036;15.466;2023-11-22T04:35:54;2.17;81.86
68098;DHT22;54886;47.036;15.466;2023-11-22T04:38:20;2.11;82.11
68098;DHT22;54886;47.036;15.466;2023-11-22T04:40:45;2.13;81.94
68098;DHT22;54886;47.036;15.466;2023-11-22T04:43:11;2.19;82.01
68098;DHT22;54886;47.036;15.466;2023-11-22T04:45:36;2.05;82.27
68098;DHT22;54886;47.036;15.466;2023-11-22T04:48:03;2.09;82.04
68098;DHT22;54886;47.036;15.466;2023-11-22T04:50:29;2.06;82.26
68098;DHT22;54886;47.036;15.466;2023-11-22T04:52:54;2.00;82.47
68098;DHT22;54886;47.036;15.466;2023-11-22T04:55:20;2.05;82.24
68098;DHT22;54886;47.036;15.466;2023-11-22T04:57:45;1.93;82.69
68098;DHT22;54886;47.036;15.466;2023-11-22T05:00:11;1.91;82.74
68098;DHT22;54886;47.036;15.466;2023-11-22T05:02:37;1.92;82.60
68098;DHT22;54886;47.036;15.466;2023-11-22T05:05:03;1.92;82.55
68098;DHT22;54886;47.036;15.466;2023-11-22T05:07:29;1.89;82.90
68098;DHT22;54886;47.036;15.466;2023-11-22T05:09:54;1.87;82.78
68098;DHT22;54886;47.036;15.466;2023-11-22T05:12:20;1.86;82.85
68098;DHT22;54886;47.036;15.466;2023-11-22T05:14:45;1.89;83.05
68098;DHT22;54886;47.036;15.466;2023-11-22T05:17:11;1.91;82.64
68098;DHT22;54886;47.036;15.466;2023-11-22T05:19:38;1.96;82.31
68098;DHT22;54886;47.036;15.466;2023-11-22T05:22:03;1.96;82.51
68098;DHT22;54886;47.036;15.466;2023-11-22T05:24:28;1.92;82.33
68098;DHT22;54886;47.036;15.466;2023-11-22T05:26:54;1.95;82.04
68098;DHT22;54886;47.036;15.466;2023-11-22T05:29:19;1.95;82.13
68098;DHT22;54886;47.036;15.466;2023-11-22T05:31:45;1.95;82.20
68098;DHT22;54886;47.036;15.466;2023-11-22T05:34:10;1.91;82.59
68098;DHT22;54886;47.036;15.466;2023-11-22T05:36:35;1.83;82.27
68098;DHT22;54886;47.036;15.466;2023-11-22T05:39:01;1.86;82.31
68098;DHT22;54886;47.036;15.466;2023-11-22T05:41:29;1.76;82.29
68098;DHT22;54886;47.036;15.466;2023-11-22T05:43:54;1.79;82.17
68098;DHT22;54886;47.036;15.466;2023-11-22T05:46:21;1.75;82.38
68098;DHT22;54886;47.036;15.466;2023-11-22T05:48:53;1.74;82.49
68098;DHT22;54886;47.036;15.466;2023-11-22T05:51:18;1.74;82.10
68098;DHT22;54886;47.036;15.466;2023-11-22T05:53:44;1.74;82.02
68098;DHT22;54886;47.036;15.466;2023-11-22T05:56:09;1.72;82.42
68098;DHT22;54886;47.036;15.466;2023-11-22T05:58:35;1.69;82.07
68098;DHT22;54886;47.036;15.466;2023-11-22T06:01:06;1.64;81.98
68098;DHT22;54886;47.036;15.466;2023-11-22T06:03:32;1.64;82.23
68098;DHT22;54886;47.036;15.466;2023-11-22T06:05:58;1.65;82.15
68098;DHT22;54886;47.036;15.466;2023-11-22T06:08:23;1.58;82.67
68098;DHT22;54886;47.036;15.466;2023-11-22T06:10:49;1.59;82.28
68098;DHT22;54886;47.036;15.466;2023-11-22T06:13:14;1.64;82.35
68098;DHT22;54886;47.036;15.466;2023-11-22T06:15:40;1.64;82.20
68098;DHT22;54886;47.036;15.466;2023-11-22T06:18:05;1.56;82.84
68098;DHT22;54886;47.036;15.466;2023-11-22T06:20:30;1.55;82.96
68098;DHT22;54886;47.036;15.466;2023-11-22T06:22:57;1.52;82.81
68098;DHT22;54886;47.036;15.466;2023-11-22T06:25:23;1.56;82.73
68098;DHT22;54886;47.036;15.466;2023-11-22T06:27:48;1.61;82.91
68098;DHT22;54886;47.036;15.466;2023-11-22T06:30:14;1.62;82.99
68098;DHT22;54886;47.036;15.466;2023-11-22T06:32:40;1.58;82.79
68098;DHT22;54886;47.036;15.466;2023-11-22T06:35:07;1.61;82.70
68098;DHT22;54886;47.036;15.466;2023-11-22T06:37:34;1.55;83.10
68098;DHT22;54886;47.036;15.466;2023-11-22T06:39:59;1.56;82.52
68098;DHT22;54886;47.036;15.466;2023-11-22T06:42:25;1.61;82.39
68098;DHT22;54886;47.036;15.466;2023-11-22T06:44:51;1.62;82.86
68098;DHT22;54886;47.036;15.466;2023-11-22T06:47:18;1.65;82.88
68098;DHT22;54886;47.036;15.466;2023-11-22T06:49:44;1.59;83.12
68098;DHT22;54886;47.036;15.466;2023-11-22T06:52:09;1.55;83.57
68098;DHT22;54886;47.036;15.466;2023-11-22T06:54:34;1.58;82.77
68098;DHT22;54886;47.036;15.466;2023-11-22T06:57:02;1.62;82.68
68098;DHT22;54886;47.036;15.466;2023-11-22T06:59:28;1.62;82.72
68098;DHT22;54886;47.036;15.466;2023-11-22T07:01:53;1.64;82.96
68098;DHT22;54886;47.036;15.466;2023-11-22T07:04:18;1.55;83.32
68098;DHT22;54886;47.036;15.466;2023-11-22T07:06:44;1.61;82.72
68098;DHT22;54886;47.036;15.466;2023-11-22T07:09:10;1.65;82.74
68098;DHT22;54886;47.036;15.466;2023-11-22T07:11:35;1.66;83.07
68098;DHT22;54886;47.036;15.466;2023-11-22T07:14:02;1.66;83.29
68098;DHT22;54886;47.036;15.466;2023-11-22T07:16:29;1.65;83.77
68098;DHT22;54886;47.036;15.466;2023-11-22T07:18:54;1.66;83.72
68098;DHT22;54886;47.036;15.466;2023-11-22T07:21:20;1.71;83.08
68098;DHT22;54886;47.036;15.466;2023-11-22T07:23:46;1.74;83.27
68098;DHT22;54886;47.036;15.466;2023-11-22T07:26:12;1.75;82.96
68098;DHT22;54886;47.036;15.466;2023-11-22T07:28:39;1.75;83.74
68098;DHT22;54886;47.036;15.466;2023-11-22T07:31:07;1.76;84.11
68098;DHT22;54886;47.036;15.466;2023-11-22T07:33:33;1.79;83.47
68098;DHT22;54886;47.036;15.466;2023-11-22T07:35:58;1.83;83.53
68098;DHT22;54886;47.036;15.466;2023-11-22T07:38:24;1.86;84.62
68098;DHT22;54886;47.036;15.466;2023-11-22T07:40:50;1.89;84.32
68098;DHT22;54886;47.036;15.466;2023-11-22T07:43:16;1.91;84.46
68098;DHT22;54886;47.036;15.466;2023-11-22T07:45:41;1.95;86.24
68098;DHT22;54886;47.036;15.466;2023-11-22T07:48:10;2.02;86.47
68098;DHT22;54886;47.036;15.466;2023-11-22T07:50:37;2.06;86.41
68098;DHT22;54886;47.036;15.466;2023-11-22T07:53:03;2.07;85.61
68098;DHT22;54886;47.036;15.466;2023-11-22T07:55:30;2.06;85.29
68098;DHT22;54886;47.036;15.466;2023-11-22T07:57:55;2.09;85.12
68098;DHT22;54886;47.036;15.466;2023-11-22T08:00:21;2.09;84.82
68098;DHT22;54886;47.036;15.466;2023-11-22T08:02:47;2.09;86.28
68098;DHT22;54886;47.036;15.466;2023-11-22T08:05:13;2.13;85.28
68098;DHT22;54886;47.036;15.466;2023-11-22T08:07:41;2.16;83.86
68098;DHT22;54886;47.036;15.466;2023-11-22T08:10:10;2.20;84.33
68098;DHT22;54886;47.036;15.466;2023-11-22T08:12:44;2.26;86.86
68098;DHT22;54886;47.036;15.466;2023-11-22T08:15:13;2.30;85.98
68098;DHT22;54886;47.036;15.466;2023-11-22T08:17:40;2.34;85.38
68098;DHT22;54886;47.036;15.466;2023-11-22T08:20:06;2.40;86.15
68098;DHT22;54886;47.036;15.466;2023-11-22T08:22:32;2.42;86.74
68098;DHT22;54886;47.036;15.466;2023-11-22T08:25:02;2.47;87.51
68098;DHT22;54886;47.036;15.466;2023-11-22T08:27:28;2.54;87.68
68098;DHT22;54886;47.036;15.466;2023-11-22T08:29:53;2.59;88.11
68098;DHT22;54886;47.036;15.466;2023-11-22T08:32:19;2.59;87.31
68098;DHT22;54886;47.036;15.466;2023-11-22T08:34:48;2.65;87.28
68098;DHT22;54886;47.036;15.466;2023-11-22T08:37:15;2.71;87.37
68098;DHT22;54886;47.036;15.466;2023-11-22T08:39:40;2.74;87.32
68098;DHT22;54886;47.036;15.466;2023-11-22T08:42:06;2.81;87.66
68098;DHT22;54886;47.036;15.466;2023-11-22T08:44:35;2.85;87.58
68098;DHT22;54886;47.036;15.466;2023-11-22T08:47:01;2.92;87.71
68098;DHT22;54886;47.036;15.466;2023-11-22T08:49:28;2.97;87.80
68098;DHT22;54886;47.036;15.466;2023-11-22T08:51:53;3.02;87.84
68098;DHT22;54886;47.036;15.466;2023-11-22T08:54:19;3.04;88.13
68098;DHT22;54886;47.036;15.466;2023-11-22T08:56:44;3.09;88.07
68098;DHT22;54886;47.036;15.466;2023-11-22T08:59:12;3.11;87.52
68098;DHT22;54886;47.036;15.466;2023-11-22T09:01:37;3.21;87.99
68098;DHT22;54886;47.036;15.466;2023-11-22T09:04:03;3.26;88.20
68098;DHT22;54886;47.036;15.466;2023-11-22T09:06:28;3.28;87.33
68098;DHT22;54886;47.036;15.466;2023-11-22T09:08:54;3.35;88.29
68098;DHT22;54886;47.036;15.466;2023-11-22T09:11:20;3.37;87.00
68098;DHT22;54886;47.036;15.466;2023-11-22T09:13:47;3.41;87.36
68098;DHT22;54886;47.036;15.466;2023-11-22T09:16:13;3.45;88.18
68098;DHT22;54886;47.036;15.466;2023-11-22T09:18:38;3.51;87.72
68098;DHT22;54886;47.036;15.466;2023-11-22T09:21:03;3.58;88.20
68098;DHT22;54886;47.036;15.466;2023-11-22T09:23:30;3.66;88.53
68098;DHT22;54886;47.036;15.466;2023-11-22T09:25:55;3.69;87.92
68098;DHT22;54886;47.036;15.466;2023-11-22T09:28:20;3.74;88.33
68098;DHT22;54886;47.036;15.466;2023-11-22T09:30:46;3.83;88.54
68098;DHT22;54886;47.036;15.466;2023-11-22T09:33:16;3.86;88.37
68098;DHT22;54886;47.036;15.466;2023-11-22T09:35:43;3.89;88.29
68098;DHT22;54886;47.036;15.466;2023-11-22T09:38:10;3.96;88.51
68098;DHT22;54886;47.036;15.466;2023-11-22T09:40:56;4.03;89.03
68098;DHT22;54886;47.036;15.466;2023-11-22T09:43:22;4.10;89.39
68098;DHT22;54886;47.036;15.466;2023-11-22T09:45:50;4.14;89.16
68098;DHT22;54886;47.036;15.466;2023-11-22T09:48:20;4.18;88.68
68098;DHT22;54886;47.036;15.466;2023-11-22T09:50:53;4.31;88.95
68098;DHT22;54886;47.036;15.466;2023-11-22T09:55:59;4.38;88.65
68098;DHT22;54886;47.036;15.466;2023-11-22T09:58:31;4.44;88.97
68098;DHT22;54886;47.036;15.466;2023-11-22T10:01:02;4.57;89.69
68098;DHT22;54886;47.036;15.466;2023-11-22T10:03:29;4.58;88.80
68098;DHT22;54886;47.036;15.466;2023-11-22T10:05:56;4.64;89.11
68098;DHT22;54886;47.036;15.466;2023-11-22T10:08:23;4.69;89.19
68098;DHT22;54886;47.036;15.466;2023-11-22T10:10:49;4.73;88.83
68098;DHT22;54886;47.036;15.466;2023-11-22T10:13:17;4.82;88.61
68098;DHT22;54886;47.036;15.466;2023-11-22T10:15:48;4.83;88.78
68098;DHT22;54886;47.036;15.466;2023-11-22T10:18:13;4.87;88.67
68098;DHT22;54886;47.036;15.466;2023-11-22T10:20:40;4.93;88.60
68098;DHT22;54886;47.036;15.466;2023-11-22T10:23:13;4.94;88.25
68098;DHT22;54886;47.036;15.466;2023-11-22T10:25:47;5.03;88.52
68098;DHT22;54886;47.036;15.466;2023-11-22T10:28:15;5.06;88.26
68098;DHT22;54886;47.036;15.466;2023-11-22T10:30:40;5.10;88.37
68098;DHT22;54886;47.036;15.466;2023-11-22T10:33:06;5.16;88.46
68098;DHT22;54886;47.036;15.466;2023-11-22T10:35:31;5.20;88.45
68098;DHT22;54886;47.036;15.466;2023-11-22T10:37:59;5.27;88.30
68098;DHT22;54886;47.036;15.466;2023-11-22T10:40:28;5.37;87.92
68098;DHT22;54886;47.036;15.466;2023-11-22T10:42:56;5.41;87.89
68098;DHT22;54886;47.036;15.466;2023-11-22T10:45:21;5.48;87.77
68098;DHT22;54886;47.036;15.466;2023-11-22T10:47:49;5.52;87.27
68098;DHT22;54886;47.036;15.466;2023-11-22T10:50:15;5.59;87.73
68098;DHT22;54886;47.036;15.466;2023-11-22T10:52:42;5.63;87.62
68098;DHT22;54886;47.036;15.466;2023-11-22T10:55:11;5.70;87.30
68098;DHT22;54886;47.036;15.466;2023-11-22T10:57:45;5.76;87.33
68098;DHT22;54886;47.036;15.466;2023-11-22T11:00:15;5.85;86.92
68098;DHT22;54886;47.036;15.466;2023-11-22T11:02:43;5.86;86.84
68098;DHT22;54886;47.036;15.466;2023-11-22T11:05:33;5.93;86.84
68098;DHT22;54886;47.036;15.466;2023-11-22T11:08:11;5.94;86.32
68098;DHT22;54886;47.036;15.466;2023-11-22T11:10:42;6.00;85.97
68098;DHT22;54886;47.036;15.466;2023-11-22T11:13:11;6.09;86.15
68098;DHT22;54886;47.036;15.466;2023-11-22T11:15:41;6.14;85.95
68098;DHT22;54886;47.036;15.466;2023-11-22T11:18:10;6.20;85.95
68098;DHT22;54886;47.036;15.466;2023-11-22T11:20:54;6.21;85.80
68098;DHT22;54886;47.036;15.466;2023-11-22T11:23:21;6.27;86.06
68098;DHT22;54886;47.036;15.466;2023-11-22T11:25:56;6.34;85.17
68098;DHT22;54886;47.036;15.466;2023-11-22T11:28:23;6.41;85.39
68098;DHT22;54886;47.036;15.466;2023-11-22T11:30:51;6.44;84.99
68098;DHT22;54886;47.036;15.466;2023-11-22T11:33:34;6.44;85.12
68098;DHT22;54886;47.036;15.466;2023-11-22T11:36:03;6.51;85.07
68098;DHT22;54886;47.036;15.466;2023-11-22T11:38:31;6.51;84.68
68098;DHT22;54886;47.036;15.466;2023-11-22T11:41:08;6.55;84.82
68098;DHT22;54886;47.036;15.466;2023-11-22T11:43:44;6.55;84.59
68098;DHT22;54886;47.036;15.466;2023-11-22T11:46:11;6.58;84.53
68098;DHT22;54886;47.036;15.466;2023-11-22T11:48:37;6.64;84.96
68098;DHT22;54886;47.036;15.466;2023-11-22T11:51:02;6.69;84.72
68098;DHT22;54886;47.036;15.466;2023-11-22T11:53:28;6.72;84.59
68098;DHT22;54886;47.036;15.466;2023-11-22T11:55:55;6.79;84.48
68098;DHT22;54886;47.036;15.466;2023-11-22T11:58:22;6.79;84.38
68098;DHT22;54886;47.036;15.466;2023-11-22T12:00:50;6.83;84.04
68098;DHT22;54886;47.036;15.466;2023-11-22T12:03:17;6.87;83.96
68098;DHT22;54886;47.036;15.466;2023-11-22T12:05:46;6.92;84.27
68098;DHT22;54886;47.036;15.466;2023-11-22T12:08:12;6.93;83.88
68098;DHT22;54886;47.036;15.466;2023-11-22T12:10:41;6.97;83.57
68098;DHT22;54886;47.036;15.466;2023-11-22T12:13:06;6.96;83.51
68098;DHT22;54886;47.036;15.466;2023-11-22T12:15:33;7.04;82.86
68098;DHT22;54886;47.036;15.466;2023-11-22T12:17:59;7.03;83.30
68098;DHT22;54886;47.036;15.466;2023-11-22T12:20:26;7.05;82.91
68098;DHT22;54886;47.036;15.466;2023-11-22T12:22:58;7.10;83.30
68098;DHT22;54886;47.036;15.466;2023-11-22T12:25:29;7.14;83.61
68098;DHT22;54886;47.036;15.466;2023-11-22T12:27:55;7.17;83.46
68098;DHT22;54886;47.036;15.466;2023-11-22T12:30:31;7.22;82.98
68098;DHT22;54886;47.036;15.466;2023-11-22T12:33:05;7.21;82.84
68098;DHT22;54886;47.036;15.466;2023-11-22T12:35:31;7.31;82.82
68098;DHT22;54886;47.036;15.466;2023-11-22T12:38:00;7.31;82.80
68098;DHT22;54886;47.036;15.466;2023-11-22T12:40:29;7.31;82.36
68098;DHT22;54886;47.036;15.466;2023-11-22T12:42:59;7.35;81.69
68098;DHT22;54886;47.036;15.466;2023-11-22T12:45:27;7.35;81.80
68098;DHT22;54886;47.036;15.466;2023-11-22T12:47:54;7.36;82.09
68098;DHT22;54886;47.036;15.466;2023-11-22T12:50:36;7.41;82.24
68098;DHT22;54886;47.036;15.466;2023-11-22T12:53:12;7.38;82.28
68098;DHT22;54886;47.036;15.466;2023-11-22T12:55:42;7.45;82.34
68098;DHT22;54886;47.036;15.466;2023-11-22T12:58:12;7.45;82.16
68098;DHT22;54886;47.036;15.466;2023-11-22T13:00:39;7.45;82.06
68098;DHT22;54886;47.036;15.466;2023-11-22T13:03:11;7.48;81.59
68098;DHT22;54886;47.036;15.466;2023-11-22T13:05:40;7.47;81.81
68098;DHT22;54886;47.036;15.466;2023-11-22T13:08:08;7.51;81.60
68098;DHT22;54886;47.036;15.466;2023-11-22T13:10:36;7.49;81.39
68098;DHT22;54886;47.036;15.466;2023-11-22T13:13:01;7.54;81.39
68098;DHT22;54886;47.036;15.466;2023-11-22T13:15:27;7.52;81.28
68098;DHT22;54886;47.036;15.466;2023-11-22T13:17:52;7.58;81.20
68098;DHT22;54886;47.036;15.466;2023-11-22T13:20:24;7.59;81.21
68098;DHT22;54886;47.036;15.466;2023-11-22T13:22:52;7.56;81.16
68098;DHT22;54886;47.036;15.466;2023-11-22T13:25:17;7.58;81.11
68098;DHT22;54886;47.036;15.466;2023-11-22T13:27:47;7.59;81.26
68098;DHT22;54886;47.036;15.466;2023-11-22T13:30:14;7.62;81.03
68098;DHT22;54886;47.036;15.466;2023-11-22T13:32:40;7.59;80.32
68098;DHT22;54886;47.036;15.466;2023-11-22T13:35:07;7.61;79.80
68098;DHT22;54886;47.036;15.466;2023-11-22T13:37:39;7.63;79.46
68098;DHT22;54886;47.036;15.466;2023-11-22T13:40:08;7.65;79.44
68098;DHT22;54886;47.036;15.466;2023-11-22T13:42:38;7.63;79.59
68098;DHT22;54886;47.036;15.466;2023-11-22T13:45:04;7.66;79.21
68098;DHT22;54886;47.036;15.466;2023-11-22T13:47:30;7.63;78.67
68098;DHT22;54886;47.036;15.466;2023-11-22T13:49:58;7.68;77.11
68098;DHT22;54886;47.036;15.466;2023-11-22T13:52:24;7.68;76.71
68098;DHT22;54886;47.036;15.466;2023-11-22T13:54:49;7.70;76.28
68098;DHT22;54886;47.036;15.466;2023-11-22T13:57:16;7.68;76.50
68098;DHT22;54886;47.036;15.466;2023-11-22T13:59:42;7.68;76.03
68098;DHT22;54886;47.036;15.466;2023-11-22T14:02:07;7.66;76.00
68098;DHT22;54886;47.036;15.466;2023-11-22T14:04:33;7.76;73.85
68098;DHT22;54886;47.036;15.466;2023-11-22T14:06:59;7.69;75.11
68098;DHT22;54886;47.036;15.466;2023-11-22T14:09:25;7.69;74.71
68098;DHT22;54886;47.036;15.466;2023-11-22T14:11:52;7.68;74.98
68098;DHT22;54886;47.036;15.466;2023-11-22T14:14:18;7.68;74.52
68098;DHT22;54886;47.036;15.466;2023-11-22T14:16:44;7.68;75.72
68098;DHT22;54886;47.036;15.466;2023-11-22T14:19:11;7.68;75.52
68098;DHT22;54886;47.036;15.466;2023-11-22T14:21:36;7.63;75.25
68098;DHT22;54886;47.036;15.466;2023-11-22T14:24:02;7.63;74.99
68098;DHT22;54886;47.036;15.466;2023-11-22T14:26:27;7.61;75.46
68098;DHT22;54886;47.036;15.466;2023-11-22T14:28:52;7.61;75.26
68098;DHT22;54886;47.036;15.466;2023-11-22T14:31:18;7.58;74.76
68098;DHT22;54886;47.036;15.466;2023-11-22T14:33:43;7.58;74.45
68098;DHT22;54886;47.036;15.466;2023-11-22T14:36:09;7.55;74.86
68098;DHT22;54886;47.036;15.466;2023-11-22T14:38:34;7.54;75.06
68098;DHT22;54886;47.036;15.466;2023-11-22T14:41:00;7.51;75.01
68098;DHT22;54886;47.036;15.466;2023-11-22T14:43:26;7.47;74.50
68098;DHT22;54886;47.036;15.466;2023-11-22T14:45:51;7.48;74.29
68098;DHT22;54886;47.036;15.466;2023-11-22T14:48:17;7.44;73.78
68098;DHT22;54886;47.036;15.466;2023-11-22T14:50:43;7.44;74.78
68098;DHT22;54886;47.036;15.466;2023-11-22T14:53:09;7.41;74.69
68098;DHT22;54886;47.036;15.466;2023-11-22T14:55:34;7.40;73.63
68098;DHT22;54886;47.036;15.466;2023-11-22T14:58:04;7.35;74.07
68098;DHT22;54886;47.036;15.466;2023-11-22T15:00:31;7.34;74.63
68098;DHT22;54886;47.036;15.466;2023-11-22T15:02:56;7.31;73.42
68098;DHT22;54886;47.036;15.466;2023-11-22T15:05:22;7.28;74.23
68098;DHT22;54886;47.036;15.466;2023-11-22T15:07:48;7.21;74.33
68098;DHT22;54886;47.036;15.466;2023-11-22T15:10:19;7.22;74.42
68098;DHT22;54886;47.036;15.466;2023-11-22T15:12:45;7.21;74.61
68098;DHT22;54886;47.036;15.466;2023-11-22T15:15:12;7.10;74.58
68098;DHT22;54886;47.036;15.466;2023-11-22T15:17:37;7.08;74.71
68098;DHT22;54886;47.036;15.466;2023-11-22T15:20:06;7.04;73.79
68098;DHT22;54886;47.036;15.466;2023-11-22T15:22:35;7.05;74.21
68098;DHT22;54886;47.036;15.466;2023-11-22T15:25:01;7.05;74.65
68098;DHT22;54886;47.036;15.466;2023-11-22T15:27:26;7.01;74.56
68098;DHT22;54886;47.036;15.466;2023-11-22T15:29:52;6.94;74.45